sensor_id;sensor_type;location;lat;lon;timestamp;P1;durP1;ratioP1;P2;durP2;ratioP2
10715;SDS011;5409;42.620;23.316;2024-03-25T00:00:24;1.05;;;1.05;;
10715;SDS011;5409;42.620;23.316;2024-03-25T00:02:50;1.38;;;1.35;;
10715;SDS011;5409;42.620;23.316;2024-03-25T00:05:16;1.10;;;1.10;;
10715;SDS011;5409;42.620;23.316;2024-03-25T00:10:12;1.00;;;1.00;;
10715;SDS011;5409;42.620;23.316;2024-03-25T00:12:37;1.10;;;1.10;;
10715;SDS011;5409;42.620;23.316;2024-03-25T00:15:03;0.80;;;0.80;;
10715;SDS011;5409;42.620;23.316;2024-03-25T00:17:29;1.10;;;1.10;;
10715;SDS011;5409;42.620;23.316;2024-03-25T00:19:54;0.82;;;0.82;;
10715;SDS011;5409;42.620;23.316;2024-03-25T00:22:20;1.73;;;1.73;;
10715;SDS011;5409;42.620;23.316;2024-03-25T00:24:46;1.20;;;1.20;;
10715;SDS011;5409;42.620;23.316;2024-03-25T00:27:13;1.05;;;1.05;;
10715;SDS011;5409;42.620;23.316;2024-03-25T00:29:39;1.58;;;1.58;;
10715;SDS011;5409;42.620;23.316;2024-03-25T00:32:05;1.92;;;1.92;;
10715;SDS011;5409;42.620;23.316;2024-03-25T00:34:31;1.13;;;1.13;;
10715;SDS011;5409;42.620;23.316;2024-03-25T00:36:57;1.15;;;1.15;;
10715;SDS011;5409;42.620;23.316;2024-03-25T00:39:23;1.23;;;1.23;;
10715;SDS011;5409;42.620;23.316;2024-03-25T00:41:48;1.83;;;1.83;;
10715;SDS011;5409;42.620;23.316;2024-03-25T00:44:14;1.70;;;1.70;;
10715;SDS011;5409;42.620;23.316;2024-03-25T00:46:39;1.27;;;1.27;;
10715;SDS011;5409;42.620;23.316;2024-03-25T00:49:06;0.82;;;0.82;;
10715;SDS011;5409;42.620;23.316;2024-03-25T00:51:32;1.00;;;1.00;;
10715;SDS011;5409;42.620;23.316;2024-03-25T00:53:58;1.05;;;0.90;;
10715;SDS011;5409;42.620;23.316;2024-03-25T00:56:23;1.25;;;1.25;;
10715;SDS011;5409;42.620;23.316;2024-03-25T00:58:48;1.17;;;1.17;;
10715;SDS011;5409;42.620;23.316;2024-03-25T01:01:14;1.35;;;1.35;;
10715;SDS011;5409;42.620;23.316;2024-03-25T01:03:39;0.82;;;0.82;;
10715;SDS011;5409;42.620;23.316;2024-03-25T01:06:04;0.80;;;0.80;;
10715;SDS011;5409;42.620;23.316;2024-03-25T01:08:30;1.05;;;1.05;;
10715;SDS011;5409;42.620;23.316;2024-03-25T01:10:55;1.33;;;1.33;;
10715;SDS011;5409;42.620;23.316;2024-03-25T01:13:21;1.20;;;1.20;;
10715;SDS011;5409;42.620;23.316;2024-03-25T01:15:46;1.45;;;1.45;;
10715;SDS011;5409;42.620;23.316;2024-03-25T01:18:12;1.20;;;1.20;;
10715;SDS011;5409;42.620;23.316;2024-03-25T01:20:38;1.13;;;1.13;;
10715;SDS011;5409;42.620;23.316;2024-03-25T01:23:03;1.27;;;1.27;;
10715;SDS011;5409;42.620;23.316;2024-03-25T01:25:29;1.48;;;1.48;;
10715;SDS011;5409;42.620;23.316;2024-03-25T01:27:55;1.25;;;1.25;;
10715;SDS011;5409;42.620;23.316;2024-03-25T01:30:21;1.58;;;1.48;;
10715;SDS011;5409;42.620;23.316;2024-03-25T01:32:47;0.38;;;0.38;;
10715;SDS011;5409;42.620;23.316;2024-03-25T01:35:13;1.58;;;1.58;;
10715;SDS011;5409;42.620;23.316;2024-03-25T01:37:40;2.03;;;1.92;;
10715;SDS011;5409;42.620;23.316;2024-03-25T01:40:06;1.10;;;1.10;;
10715;SDS011;5409;42.620;23.316;2024-03-25T01:42:32;0.30;;;0.30;;
10715;SDS011;5409;42.620;23.316;2024-03-25T01:44:57;1.60;;;1.50;;
10715;SDS011;5409;42.620;23.316;2024-03-25T01:47:23;1.48;;;1.48;;
10715;SDS011;5409;42.620;23.316;2024-03-25T01:49:49;0.88;;;0.88;;
10715;SDS011;5409;42.620;23.316;2024-03-25T01:52:18;1.30;;;1.30;;
10715;SDS011;5409;42.620;23.316;2024-03-25T01:54:45;0.82;;;0.50;;
10715;SDS011;5409;42.620;23.316;2024-03-25T01:57:11;1.55;;;1.55;;
10715;SDS011;5409;42.620;23.316;2024-03-25T01:59:37;1.55;;;1.45;;
10715;SDS011;5409;42.620;23.316;2024-03-25T02:02:04;1.30;;;1.30;;
10715;SDS011;5409;42.620;23.316;2024-03-25T02:04:30;1.23;;;1.23;;
10715;SDS011;5409;42.620;23.316;2024-03-25T02:06:56;1.30;;;1.30;;
10715;SDS011;5409;42.620;23.316;2024-03-25T02:09:23;0.98;;;0.98;;
10715;SDS011;5409;42.620;23.316;2024-03-25T02:11:49;1.10;;;1.10;;
10715;SDS011;5409;42.620;23.316;2024-03-25T02:14:16;1.30;;;1.30;;
10715;SDS011;5409;42.620;23.316;2024-03-25T02:16:41;1.13;;;1.13;;
10715;SDS011;5409;42.620;23.316;2024-03-25T02:19:07;1.25;;;1.20;;
10715;SDS011;5409;42.620;23.316;2024-03-25T02:21:33;1.33;;;1.33;;
10715;SDS011;5409;42.620;23.316;2024-03-25T02:23:59;0.30;;;0.30;;
10715;SDS011;5409;42.620;23.316;2024-03-25T02:26:25;1.27;;;1.27;;
10715;SDS011;5409;42.620;23.316;2024-03-25T02:28:50;1.63;;;1.60;;
10715;SDS011;5409;42.620;23.316;2024-03-25T02:31:16;1.80;;;1.70;;
10715;SDS011;5409;42.620;23.316;2024-03-25T02:33:41;1.42;;;1.38;;
10715;SDS011;5409;42.620;23.316;2024-03-25T02:36:07;1.27;;;1.27;;
10715;SDS011;5409;42.620;23.316;2024-03-25T02:38:33;1.17;;;1.17;;
10715;SDS011;5409;42.620;23.316;2024-03-25T02:40:59;1.42;;;1.33;;
10715;SDS011;5409;42.620;23.316;2024-03-25T02:43:25;1.48;;;1.48;;
10715;SDS011;5409;42.620;23.316;2024-03-25T02:45:50;1.00;;;1.00;;
10715;SDS011;5409;42.620;23.316;2024-03-25T02:48:16;1.33;;;1.33;;
10715;SDS011;5409;42.620;23.316;2024-03-25T02:50:41;1.35;;;1.35;;
10715;SDS011;5409;42.620;23.316;2024-03-25T02:53:06;1.20;;;1.20;;
10715;SDS011;5409;42.620;23.316;2024-03-25T02:55:32;0.98;;;0.98;;
10715;SDS011;5409;42.620;23.316;2024-03-25T02:57:57;1.30;;;1.30;;
10715;SDS011;5409;42.620;23.316;2024-03-25T03:00:22;1.20;;;1.20;;
10715;SDS011;5409;42.620;23.316;2024-03-25T03:02:48;1.30;;;1.30;;
10715;SDS011;5409;42.620;23.316;2024-03-25T03:05:13;1.30;;;1.30;;
10715;SDS011;5409;42.620;23.316;2024-03-25T03:07:39;0.20;;;0.20;;
10715;SDS011;5409;42.620;23.316;2024-03-25T03:10:04;1.33;;;1.33;;
10715;SDS011;5409;42.620;23.316;2024-03-25T03:12:30;1.10;;;1.10;;
10715;SDS011;5409;42.620;23.316;2024-03-25T03:14:55;0.43;;;0.43;;
10715;SDS011;5409;42.620;23.316;2024-03-25T03:17:21;1.02;;;1.02;;
10715;SDS011;5409;42.620;23.316;2024-03-25T03:19:46;1.38;;;1.38;;
10715;SDS011;5409;42.620;23.316;2024-03-25T03:22:12;1.33;;;1.33;;
10715;SDS011;5409;42.620;23.316;2024-03-25T03:24:37;1.33;;;1.33;;
10715;SDS011;5409;42.620;23.316;2024-03-25T03:27:02;1.95;;;1.85;;
10715;SDS011;5409;42.620;23.316;2024-03-25T03:29:28;1.52;;;1.52;;
10715;SDS011;5409;42.620;23.316;2024-03-25T03:31:54;1.75;;;1.65;;
10715;SDS011;5409;42.620;23.316;2024-03-25T03:34:20;1.80;;;1.73;;
10715;SDS011;5409;42.620;23.316;2024-03-25T03:36:46;1.60;;;1.58;;
10715;SDS011;5409;42.620;23.316;2024-03-25T03:39:11;2.25;;;1.75;;
10715;SDS011;5409;42.620;23.316;2024-03-25T03:41:38;2.17;;;2.15;;
10715;SDS011;5409;42.620;23.316;2024-03-25T03:44:03;2.00;;;1.90;;
10715;SDS011;5409;42.620;23.316;2024-03-25T03:46:29;1.50;;;1.50;;
10715;SDS011;5409;42.620;23.316;2024-03-25T03:48:54;1.48;;;1.48;;
10715;SDS011;5409;42.620;23.316;2024-03-25T03:51:20;3.10;;;3.00;;
10715;SDS011;5409;42.620;23.316;2024-03-25T03:53:45;1.20;;;1.10;;
10715;SDS011;5409;42.620;23.316;2024-03-25T03:56:11;2.25;;;2.05;;
10715;SDS011;5409;42.620;23.316;2024-03-25T03:58:36;1.10;;;1.00;;
10715;SDS011;5409;42.620;23.316;2024-03-25T04:01:01;2.05;;;1.95;;
10715;SDS011;5409;42.620;23.316;2024-03-25T04:03:29;2.60;;;2.40;;
10715;SDS011;5409;42.620;23.316;2024-03-25T04:05:54;1.88;;;1.75;;
10715;SDS011;5409;42.620;23.316;2024-03-25T04:08:20;2.85;;;2.65;;
10715;SDS011;5409;42.620;23.316;2024-03-25T04:10:46;3.55;;;3.25;;
10715;SDS011;5409;42.620;23.316;2024-03-25T04:13:12;1.60;;;1.50;;
10715;SDS011;5409;42.620;23.316;2024-03-25T04:15:38;3.03;;;2.85;;
10715;SDS011;5409;42.620;23.316;2024-03-25T04:18:05;2.97;;;2.78;;
10715;SDS011;5409;42.620;23.316;2024-03-25T04:20:37;4.18;;;3.88;;
10715;SDS011;5409;42.620;23.316;2024-03-25T04:23:04;2.55;;;2.45;;
10715;SDS011;5409;42.620;23.316;2024-03-25T04:25:30;3.25;;;3.05;;
10715;SDS011;5409;42.620;23.316;2024-03-25T04:27:56;2.83;;;2.65;;
10715;SDS011;5409;42.620;23.316;2024-03-25T04:30:21;4.00;;;3.28;;
10715;SDS011;5409;42.620;23.316;2024-03-25T04:32:46;4.68;;;4.15;;
10715;SDS011;5409;42.620;23.316;2024-03-25T04:35:12;3.05;;;2.85;;
10715;SDS011;5409;42.620;23.316;2024-03-25T04:37:37;2.50;;;2.30;;
10715;SDS011;5409;42.620;23.316;2024-03-25T04:40:02;3.10;;;2.90;;
10715;SDS011;5409;42.620;23.316;2024-03-25T04:42:28;3.55;;;3.25;;
10715;SDS011;5409;42.620;23.316;2024-03-25T04:44:53;2.70;;;2.50;;
10715;SDS011;5409;42.620;23.316;2024-03-25T04:47:19;11.23;;;2.70;;
10715;SDS011;5409;42.620;23.316;2024-03-25T04:49:45;3.45;;;3.25;;
10715;SDS011;5409;42.620;23.316;2024-03-25T04:52:11;3.15;;;2.65;;
10715;SDS011;5409;42.620;23.316;2024-03-25T04:54:41;3.45;;;3.25;;
10715;SDS011;5409;42.620;23.316;2024-03-25T04:57:07;4.10;;;3.13;;
10715;SDS011;5409;42.620;23.316;2024-03-25T04:59:33;2.58;;;2.25;;
10715;SDS011;5409;42.620;23.316;2024-03-25T05:01:58;3.03;;;2.83;;
10715;SDS011;5409;42.620;23.316;2024-03-25T05:04:24;3.20;;;2.95;;
10715;SDS011;5409;42.620;23.316;2024-03-25T05:06:50;4.72;;;3.05;;
10715;SDS011;5409;42.620;23.316;2024-03-25T05:09:15;3.42;;;3.17;;
10715;SDS011;5409;42.620;23.316;2024-03-25T05:11:41;3.75;;;3.40;;
10715;SDS011;5409;42.620;23.316;2024-03-25T05:14:07;3.55;;;3.25;;
10715;SDS011;5409;42.620;23.316;2024-03-25T05:16:34;9.70;;;4.05;;
10715;SDS011;5409;42.620;23.316;2024-03-25T05:18:59;2.30;;;2.20;;
10715;SDS011;5409;42.620;23.316;2024-03-25T05:21:24;4.45;;;2.65;;
10715;SDS011;5409;42.620;23.316;2024-03-25T05:23:50;4.85;;;3.95;;
10715;SDS011;5409;42.620;23.316;2024-03-25T05:26:15;4.22;;;3.92;;
10715;SDS011;5409;42.620;23.316;2024-03-25T05:28:41;4.10;;;3.78;;
10715;SDS011;5409;42.620;23.316;2024-03-25T05:31:06;4.10;;;3.50;;
10715;SDS011;5409;42.620;23.316;2024-03-25T05:33:32;4.82;;;4.40;;
10715;SDS011;5409;42.620;23.316;2024-03-25T05:35:58;4.20;;;3.38;;
10715;SDS011;5409;42.620;23.316;2024-03-25T05:38:24;3.55;;;3.38;;
10715;SDS011;5409;42.620;23.316;2024-03-25T05:40:50;3.80;;;3.50;;
10715;SDS011;5409;42.620;23.316;2024-03-25T05:43:15;4.07;;;3.67;;
10715;SDS011;5409;42.620;23.316;2024-03-25T05:45:40;3.50;;;3.17;;
10715;SDS011;5409;42.620;23.316;2024-03-25T05:48:06;5.20;;;4.50;;
10715;SDS011;5409;42.620;23.316;2024-03-25T05:50:31;3.22;;;3.03;;
10715;SDS011;5409;42.620;23.316;2024-03-25T05:52:57;4.25;;;3.22;;
10715;SDS011;5409;42.620;23.316;2024-03-25T05:55:22;3.60;;;3.33;;
10715;SDS011;5409;42.620;23.316;2024-03-25T05:57:47;4.80;;;4.53;;
10715;SDS011;5409;42.620;23.316;2024-03-25T06:00:13;3.03;;;2.88;;
10715;SDS011;5409;42.620;23.316;2024-03-25T06:02:39;3.08;;;2.88;;
10715;SDS011;5409;42.620;23.316;2024-03-25T06:05:04;5.35;;;3.13;;
10715;SDS011;5409;42.620;23.316;2024-03-25T06:07:30;2.40;;;2.20;;
10715;SDS011;5409;42.620;23.316;2024-03-25T06:09:55;4.85;;;4.18;;
10715;SDS011;5409;42.620;23.316;2024-03-25T06:12:21;4.05;;;2.28;;
10715;SDS011;5409;42.620;23.316;2024-03-25T06:14:46;3.25;;;2.97;;
10715;SDS011;5409;42.620;23.316;2024-03-25T06:17:11;3.70;;;3.40;;
10715;SDS011;5409;42.620;23.316;2024-03-25T06:19:36;3.97;;;3.10;;
10715;SDS011;5409;42.620;23.316;2024-03-25T06:22:02;4.68;;;4.35;;
10715;SDS011;5409;42.620;23.316;2024-03-25T06:24:27;4.30;;;3.95;;
10715;SDS011;5409;42.620;23.316;2024-03-25T06:26:53;4.10;;;3.65;;
10715;SDS011;5409;42.620;23.316;2024-03-25T06:29:18;4.25;;;3.75;;
10715;SDS011;5409;42.620;23.316;2024-03-25T06:31:43;2.53;;;2.33;;
10715;SDS011;5409;42.620;23.316;2024-03-25T06:34:27;3.03;;;2.45;;
10715;SDS011;5409;42.620;23.316;2024-03-25T06:36:53;4.15;;;3.80;;
10715;SDS011;5409;42.620;23.316;2024-03-25T06:39:19;3.85;;;3.40;;
10715;SDS011;5409;42.620;23.316;2024-03-25T06:41:44;4.57;;;3.92;;
10715;SDS011;5409;42.620;23.316;2024-03-25T06:44:09;4.45;;;3.58;;
10715;SDS011;5409;42.620;23.316;2024-03-25T06:46:35;5.55;;;3.70;;
10715;SDS011;5409;42.620;23.316;2024-03-25T06:49:00;4.28;;;3.95;;
10715;SDS011;5409;42.620;23.316;2024-03-25T06:51:25;3.95;;;3.63;;
10715;SDS011;5409;42.620;23.316;2024-03-25T06:53:51;3.80;;;3.50;;
10715;SDS011;5409;42.620;23.316;2024-03-25T06:56:17;1.92;;;1.88;;
10715;SDS011;5409;42.620;23.316;2024-03-25T06:58:42;5.88;;;5.32;;
10715;SDS011;5409;42.620;23.316;2024-03-25T07:01:10;4.82;;;4.00;;
10715;SDS011;5409;42.620;23.316;2024-03-25T07:03:37;4.63;;;3.35;;
10715;SDS011;5409;42.620;23.316;2024-03-25T07:06:03;5.20;;;4.80;;
10715;SDS011;5409;42.620;23.316;2024-03-25T07:08:30;4.10;;;3.70;;
10715;SDS011;5409;42.620;23.316;2024-03-25T07:10:56;5.53;;;4.03;;
10715;SDS011;5409;42.620;23.316;2024-03-25T07:13:21;4.70;;;3.55;;
10715;SDS011;5409;42.620;23.316;2024-03-25T07:15:47;2.80;;;2.67;;
10715;SDS011;5409;42.620;23.316;2024-03-25T07:18:13;3.03;;;2.70;;
10715;SDS011;5409;42.620;23.316;2024-03-25T07:20:42;3.38;;;3.17;;
10715;SDS011;5409;42.620;23.316;2024-03-25T07:23:08;5.13;;;2.83;;
10715;SDS011;5409;42.620;23.316;2024-03-25T07:25:34;3.47;;;3.17;;
10715;SDS011;5409;42.620;23.316;2024-03-25T07:28:00;3.45;;;3.25;;
10715;SDS011;5409;42.620;23.316;2024-03-25T07:30:26;4.13;;;2.92;;
10715;SDS011;5409;42.620;23.316;2024-03-25T07:32:55;3.20;;;3.00;;
10715;SDS011;5409;42.620;23.316;2024-03-25T07:35:21;3.17;;;2.97;;
10715;SDS011;5409;42.620;23.316;2024-03-25T07:37:47;3.95;;;3.05;;
10715;SDS011;5409;42.620;23.316;2024-03-25T07:40:16;3.78;;;3.45;;
10715;SDS011;5409;42.620;23.316;2024-03-25T07:42:41;3.65;;;3.22;;
10715;SDS011;5409;42.620;23.316;2024-03-25T07:45:07;2.55;;;2.45;;
10715;SDS011;5409;42.620;23.316;2024-03-25T07:47:32;3.67;;;3.35;;
10715;SDS011;5409;42.620;23.316;2024-03-25T07:49:58;2.75;;;2.60;;
10715;SDS011;5409;42.620;23.316;2024-03-25T07:52:24;2.70;;;2.50;;
10715;SDS011;5409;42.620;23.316;2024-03-25T07:54:50;4.10;;;3.72;;
10715;SDS011;5409;42.620;23.316;2024-03-25T07:57:16;3.90;;;2.97;;
10715;SDS011;5409;42.620;23.316;2024-03-25T07:59:41;2.53;;;2.42;;
10715;SDS011;5409;42.620;23.316;2024-03-25T08:02:07;1.02;;;0.90;;
10715;SDS011;5409;42.620;23.316;2024-03-25T08:04:32;2.72;;;2.53;;
10715;SDS011;5409;42.620;23.316;2024-03-25T08:06:57;2.83;;;2.63;;
10715;SDS011;5409;42.620;23.316;2024-03-25T08:09:23;2.78;;;2.65;;
10715;SDS011;5409;42.620;23.316;2024-03-25T08:11:48;3.40;;;3.03;;
10715;SDS011;5409;42.620;23.316;2024-03-25T08:14:14;4.18;;;2.92;;
10715;SDS011;5409;42.620;23.316;2024-03-25T08:16:39;3.08;;;2.83;;
10715;SDS011;5409;42.620;23.316;2024-03-25T08:19:04;2.75;;;2.65;;
10715;SDS011;5409;42.620;23.316;2024-03-25T08:21:30;2.50;;;2.30;;
10715;SDS011;5409;42.620;23.316;2024-03-25T08:23:56;1.10;;;1.02;;
10715;SDS011;5409;42.620;23.316;2024-03-25T08:26:21;2.92;;;2.70;;
10715;SDS011;5409;42.620;23.316;2024-03-25T08:28:47;3.45;;;3.15;;
10715;SDS011;5409;42.620;23.316;2024-03-25T08:31:13;4.10;;;3.30;;
10715;SDS011;5409;42.620;23.316;2024-03-25T08:33:39;3.38;;;3.13;;
10715;SDS011;5409;42.620;23.316;2024-03-25T08:36:04;2.88;;;2.67;;
10715;SDS011;5409;42.620;23.316;2024-03-25T08:38:30;4.97;;;3.13;;
10715;SDS011;5409;42.620;23.316;2024-03-25T08:40:55;3.38;;;3.13;;
10715;SDS011;5409;42.620;23.316;2024-03-25T08:43:20;4.03;;;3.72;;
10715;SDS011;5409;42.620;23.316;2024-03-25T08:45:46;3.78;;;3.47;;
10715;SDS011;5409;42.620;23.316;2024-03-25T08:48:11;3.15;;;2.95;;
10715;SDS011;5409;42.620;23.316;2024-03-25T08:50:37;3.63;;;3.33;;
10715;SDS011;5409;42.620;23.316;2024-03-25T08:53:03;3.20;;;3.00;;
10715;SDS011;5409;42.620;23.316;2024-03-25T08:55:29;2.70;;;2.30;;
10715;SDS011;5409;42.620;23.316;2024-03-25T08:57:54;4.85;;;4.10;;
10715;SDS011;5409;42.620;23.316;2024-03-25T09:00:20;3.70;;;3.42;;
10715;SDS011;5409;42.620;23.316;2024-03-25T09:02:45;3.70;;;3.40;;
10715;SDS011;5409;42.620;23.316;2024-03-25T09:05:11;2.70;;;2.53;;
10715;SDS011;5409;42.620;23.316;2024-03-25T09:07:38;3.17;;;2.97;;
10715;SDS011;5409;42.620;23.316;2024-03-25T09:10:04;3.40;;;3.20;;
10715;SDS011;5409;42.620;23.316;2024-03-25T09:12:48;3.33;;;3.13;;
10715;SDS011;5409;42.620;23.316;2024-03-25T09:15:14;2.78;;;2.58;;
10715;SDS011;5409;42.620;23.316;2024-03-25T09:17:39;3.05;;;2.95;;
10715;SDS011;5409;42.620;23.316;2024-03-25T09:20:05;4.10;;;3.47;;
10715;SDS011;5409;42.620;23.316;2024-03-25T09:22:45;3.55;;;2.58;;
10715;SDS011;5409;42.620;23.316;2024-03-25T09:25:13;3.80;;;3.55;;
10715;SDS011;5409;42.620;23.316;2024-03-25T09:27:48;3.85;;;3.60;;
10715;SDS011;5409;42.620;23.316;2024-03-25T09:30:14;3.05;;;2.85;;
10715;SDS011;5409;42.620;23.316;2024-03-25T09:32:41;3.05;;;2.85;;
10715;SDS011;5409;42.620;23.316;2024-03-25T09:35:07;1.77;;;1.67;;
10715;SDS011;5409;42.620;23.316;2024-03-25T09:37:33;2.70;;;2.50;;
10715;SDS011;5409;42.620;23.316;2024-03-25T09:39:58;2.55;;;2.45;;
10715;SDS011;5409;42.620;23.316;2024-03-25T09:45:24;3.20;;;3.00;;
10715;SDS011;5409;42.620;23.316;2024-03-25T09:47:51;4.25;;;3.95;;
10715;SDS011;5409;42.620;23.316;2024-03-25T09:50:17;1.60;;;1.40;;
10715;SDS011;5409;42.620;23.316;2024-03-25T09:52:45;3.47;;;3.17;;
10715;SDS011;5409;42.620;23.316;2024-03-25T09:55:11;3.80;;;3.50;;
10715;SDS011;5409;42.620;23.316;2024-03-25T09:57:36;3.00;;;2.80;;
10715;SDS011;5409;42.620;23.316;2024-03-25T10:00:03;3.80;;;3.50;;
10715;SDS011;5409;42.620;23.316;2024-03-25T10:02:30;5.18;;;4.57;;
10715;SDS011;5409;42.620;23.316;2024-03-25T10:04:57;2.65;;;2.47;;
10715;SDS011;5409;42.620;23.316;2024-03-25T10:07:22;3.63;;;3.38;;
10715;SDS011;5409;42.620;23.316;2024-03-25T10:09:49;3.72;;;3.47;;
10715;SDS011;5409;42.620;23.316;2024-03-25T10:12:15;2.72;;;2.53;;
10715;SDS011;5409;42.620;23.316;2024-03-25T10:14:40;3.00;;;2.80;;
10715;SDS011;5409;42.620;23.316;2024-03-25T10:17:06;3.35;;;2.90;;
10715;SDS011;5409;42.620;23.316;2024-03-25T10:19:32;3.17;;;2.88;;
10715;SDS011;5409;42.620;23.316;2024-03-25T10:22:08;2.42;;;2.33;;
10715;SDS011;5409;42.620;23.316;2024-03-25T10:27:09;2.35;;;2.25;;
10715;SDS011;5409;42.620;23.316;2024-03-25T10:29:36;2.63;;;2.45;;
10715;SDS011;5409;42.620;23.316;2024-03-25T10:32:02;3.30;;;3.00;;
10715;SDS011;5409;42.620;23.316;2024-03-25T10:34:29;2.70;;;2.50;;
10715;SDS011;5409;42.620;23.316;2024-03-25T10:36:58;2.22;;;2.13;;
10715;SDS011;5409;42.620;23.316;2024-03-25T10:39:27;2.78;;;2.65;;
10715;SDS011;5409;42.620;23.316;2024-03-25T10:41:57;3.47;;;3.28;;
10715;SDS011;5409;42.620;23.316;2024-03-25T10:44:25;2.83;;;2.65;;
10715;SDS011;5409;42.620;23.316;2024-03-25T10:46:57;2.97;;;2.13;;
10715;SDS011;5409;42.620;23.316;2024-03-25T10:51:57;1.52;;;1.38;;
10715;SDS011;5409;42.620;23.316;2024-03-25T10:54:25;4.63;;;2.42;;
10715;SDS011;5409;42.620;23.316;2024-03-25T10:56:52;2.03;;;1.92;;
10715;SDS011;5409;42.620;23.316;2024-03-25T10:59:18;1.42;;;1.33;;
10715;SDS011;5409;42.620;23.316;2024-03-25T11:01:46;2.75;;;2.55;;
10715;SDS011;5409;42.620;23.316;2024-03-25T11:04:11;3.08;;;2.88;;
10715;SDS011;5409;42.620;23.316;2024-03-25T11:06:37;2.63;;;2.40;;
10715;SDS011;5409;42.620;23.316;2024-03-25T11:09:02;1.73;;;1.63;;
10715;SDS011;5409;42.620;23.316;2024-03-25T11:11:31;2.40;;;2.30;;
10715;SDS011;5409;42.620;23.316;2024-03-25T11:13:58;1.40;;;1.30;;
10715;SDS011;5409;42.620;23.316;2024-03-25T11:16:30;1.75;;;1.65;;
10715;SDS011;5409;42.620;23.316;2024-03-25T11:19:02;1.75;;;1.75;;
10715;SDS011;5409;42.620;23.316;2024-03-25T11:21:28;1.25;;;1.15;;
10715;SDS011;5409;42.620;23.316;2024-03-25T11:23:53;2.65;;;2.45;;
10715;SDS011;5409;42.620;23.316;2024-03-25T11:26:19;2.88;;;2.45;;
10715;SDS011;5409;42.620;23.316;2024-03-25T11:28:45;1.90;;;1.80;;
10715;SDS011;5409;42.620;23.316;2024-03-25T11:31:11;1.13;;;1.02;;
10715;SDS011;5409;42.620;23.316;2024-03-25T11:33:40;1.90;;;1.80;;
10715;SDS011;5409;42.620;23.316;2024-03-25T11:36:06;1.95;;;1.85;;
10715;SDS011;5409;42.620;23.316;2024-03-25T11:38:32;2.33;;;2.13;;
10715;SDS011;5409;42.620;23.316;2024-03-25T11:40:57;2.63;;;2.53;;
10715;SDS011;5409;42.620;23.316;2024-03-25T11:43:23;2.75;;;1.65;;
10715;SDS011;5409;42.620;23.316;2024-03-25T11:45:49;1.67;;;1.67;;
10715;SDS011;5409;42.620;23.316;2024-03-25T11:48:15;2.10;;;2.00;;
10715;SDS011;5409;42.620;23.316;2024-03-25T11:50:41;2.15;;;2.05;;
10715;SDS011;5409;42.620;23.316;2024-03-25T11:53:07;1.88;;;1.77;;
10715;SDS011;5409;42.620;23.316;2024-03-25T11:55:32;1.75;;;1.65;;
10715;SDS011;5409;42.620;23.316;2024-03-25T11:57:58;1.73;;;1.63;;
10715;SDS011;5409;42.620;23.316;2024-03-25T12:00:24;2.28;;;2.17;;
10715;SDS011;5409;42.620;23.316;2024-03-25T12:02:49;2.30;;;2.20;;
10715;SDS011;5409;42.620;23.316;2024-03-25T12:05:16;2.50;;;2.33;;
10715;SDS011;5409;42.620;23.316;2024-03-25T12:07:41;1.98;;;1.88;;
10715;SDS011;5409;42.620;23.316;2024-03-25T12:10:07;2.05;;;1.95;;
10715;SDS011;5409;42.620;23.316;2024-03-25T12:12:51;2.30;;;2.20;;
10715;SDS011;5409;42.620;23.316;2024-03-25T12:15:16;1.63;;;1.63;;
10715;SDS011;5409;42.620;23.316;2024-03-25T12:17:42;2.10;;;2.05;;
10715;SDS011;5409;42.620;23.316;2024-03-25T12:20:08;1.55;;;1.55;;
10715;SDS011;5409;42.620;23.316;2024-03-25T12:22:35;1.63;;;1.58;;
10715;SDS011;5409;42.620;23.316;2024-03-25T12:25:02;1.73;;;1.63;;
10715;SDS011;5409;42.620;23.316;2024-03-25T12:27:29;2.00;;;1.90;;
10715;SDS011;5409;42.620;23.316;2024-03-25T12:30:01;1.85;;;1.83;;
10715;SDS011;5409;42.620;23.316;2024-03-25T12:34:59;1.98;;;1.88;;
10715;SDS011;5409;42.620;23.316;2024-03-25T12:37:27;1.88;;;1.77;;
10715;SDS011;5409;42.620;23.316;2024-03-25T12:39:52;1.55;;;1.55;;
10715;SDS011;5409;42.620;23.316;2024-03-25T12:42:18;2.05;;;1.95;;
10715;SDS011;5409;42.620;23.316;2024-03-25T12:44:44;1.92;;;1.83;;
10715;SDS011;5409;42.620;23.316;2024-03-25T12:47:10;2.03;;;1.92;;
10715;SDS011;5409;42.620;23.316;2024-03-25T12:49:35;1.90;;;1.80;;
10715;SDS011;5409;42.620;23.316;2024-03-25T12:52:00;2.03;;;1.92;;
10715;SDS011;5409;42.620;23.316;2024-03-25T12:54:30;2.67;;;2.47;;
10715;SDS011;5409;42.620;23.316;2024-03-25T12:56:55;2.38;;;2.28;;
10715;SDS011;5409;42.620;23.316;2024-03-25T12:59:21;2.88;;;2.65;;
10715;SDS011;5409;42.620;23.316;2024-03-25T13:01:47;2.65;;;2.55;;
10715;SDS011;5409;42.620;23.316;2024-03-25T13:04:12;3.78;;;3.40;;
10715;SDS011;5409;42.620;23.316;2024-03-25T13:06:38;2.42;;;2.22;;
10715;SDS011;5409;42.620;23.316;2024-03-25T13:09:03;2.13;;;2.03;;
10715;SDS011;5409;42.620;23.316;2024-03-25T13:11:28;1.63;;;1.15;;
10715;SDS011;5409;42.620;23.316;2024-03-25T13:13:54;2.35;;;2.20;;
10715;SDS011;5409;42.620;23.316;2024-03-25T13:16:20;1.83;;;1.83;;
10715;SDS011;5409;42.620;23.316;2024-03-25T13:18:45;2.10;;;2.00;;
10715;SDS011;5409;42.620;23.316;2024-03-25T13:21:10;2.08;;;1.98;;
10715;SDS011;5409;42.620;23.316;2024-03-25T13:23:36;2.28;;;2.13;;
10715;SDS011;5409;42.620;23.316;2024-03-25T13:26:01;2.58;;;2.38;;
10715;SDS011;5409;42.620;23.316;2024-03-25T13:28:26;2.15;;;2.05;;
10715;SDS011;5409;42.620;23.316;2024-03-25T13:30:52;2.33;;;2.22;;
10715;SDS011;5409;42.620;23.316;2024-03-25T13:33:17;1.95;;;1.85;;
10715;SDS011;5409;42.620;23.316;2024-03-25T13:35:42;1.98;;;1.88;;
10715;SDS011;5409;42.620;23.316;2024-03-25T13:38:08;1.88;;;1.77;;
10715;SDS011;5409;42.620;23.316;2024-03-25T13:40:33;2.10;;;2.00;;
10715;SDS011;5409;42.620;23.316;2024-03-25T13:42:58;2.15;;;2.05;;
10715;SDS011;5409;42.620;23.316;2024-03-25T13:45:24;1.98;;;1.90;;
10715;SDS011;5409;42.620;23.316;2024-03-25T13:47:50;2.28;;;2.17;;
10715;SDS011;5409;42.620;23.316;2024-03-25T13:50:15;2.35;;;2.25;;
10715;SDS011;5409;42.620;23.316;2024-03-25T13:52:40;1.80;;;1.80;;
10715;SDS011;5409;42.620;23.316;2024-03-25T13:55:06;2.97;;;2.13;;
10715;SDS011;5409;42.620;23.316;2024-03-25T13:57:31;1.30;;;0.90;;
10715;SDS011;5409;42.620;23.316;2024-03-25T13:59:57;2.00;;;1.90;;
10715;SDS011;5409;42.620;23.316;2024-03-25T14:02:23;1.92;;;1.80;;
10715;SDS011;5409;42.620;23.316;2024-03-25T14:04:48;3.00;;;2.90;;
10715;SDS011;5409;42.620;23.316;2024-03-25T14:07:14;2.05;;;1.95;;
10715;SDS011;5409;42.620;23.316;2024-03-25T14:09:39;2.35;;;2.25;;
10715;SDS011;5409;42.620;23.316;2024-03-25T14:12:05;1.75;;;1.67;;
10715;SDS011;5409;42.620;23.316;2024-03-25T14:14:31;2.13;;;2.03;;
10715;SDS011;5409;42.620;23.316;2024-03-25T14:16:56;2.10;;;2.00;;
10715;SDS011;5409;42.620;23.316;2024-03-25T14:19:21;1.52;;;1.52;;
10715;SDS011;5409;42.620;23.316;2024-03-25T14:21:50;2.17;;;2.08;;
10715;SDS011;5409;42.620;23.316;2024-03-25T14:24:15;2.08;;;1.88;;
10715;SDS011;5409;42.620;23.316;2024-03-25T14:26:41;1.20;;;1.20;;
10715;SDS011;5409;42.620;23.316;2024-03-25T14:29:06;1.55;;;1.55;;
10715;SDS011;5409;42.620;23.316;2024-03-25T14:31:32;2.20;;;2.15;;
10715;SDS011;5409;42.620;23.316;2024-03-25T14:33:58;1.38;;;1.38;;
10715;SDS011;5409;42.620;23.316;2024-03-25T14:36:23;2.05;;;1.95;;
10715;SDS011;5409;42.620;23.316;2024-03-25T14:38:49;2.38;;;1.52;;
10715;SDS011;5409;42.620;23.316;2024-03-25T14:41:18;1.90;;;1.27;;
10715;SDS011;5409;42.620;23.316;2024-03-25T14:43:44;1.75;;;1.65;;
10715;SDS011;5409;42.620;23.316;2024-03-25T14:46:09;0.60;;;0.60;;
10715;SDS011;5409;42.620;23.316;2024-03-25T14:48:35;1.98;;;1.88;;
10715;SDS011;5409;42.620;23.316;2024-03-25T14:51:00;1.52;;;1.50;;
10715;SDS011;5409;42.620;23.316;2024-03-25T14:53:25;1.70;;;1.60;;